Terminal Aerodrome Forecast
Issued by NWS

Home | Current Version | Previous Version | Text Only | Print | Product List | Glossary Off
Versions: 1 2 3 4 5 6 7 8 9 10 11 12 13 14 15 16

000
FTUS43 KTOP 142207 AAB
TAFMHK
TAF AMD
KMHK 142207Z 1422/1518 22010KT P6SM VCSH SCT050 BKN080
      TEMPO 1422/1424 1/2SM +TSRA FG BKN025CB
     FM150000 31015G20KT P6SM VCSH BKN025
     FM150300 32017G23KT P6SM BKN050
     FM151000 32008KT P6SM FEW250=

USA.gov is the U.S. government's official web portal to all federal, state and local government web resources and services.